createdAt,value
2018-09-18T00:00:28.129Z,100047.22
2018-09-18T00:01:03.335Z,100043.87
2018-09-18T00:01:38.540Z,100050.78
2018-09-18T00:02:14.400Z,100046.58
2018-09-18T00:02:49.861Z,100053.13
2018-09-18T00:03:25.168Z,100049.20
2018-09-18T00:04:00.399Z,100049.67
2018-09-18T00:04:36.050Z,100051.72
2018-09-18T00:05:11.267Z,100048.73
2018-09-18T00:05:47.225Z,100049.90
2018-09-18T00:06:22.568Z,100050.60
2018-09-18T00:06:57.788Z,100052.98
2018-09-18T00:07:32.995Z,100049.16
2018-09-18T00:08:08.146Z,100047.58
2018-09-18T00:08:44.036Z,100049.63
2018-09-18T00:09:19.378Z,100051.67
2018-09-18T00:09:54.600Z,100051.20
2018-09-18T00:10:29.800Z,100046.81
2018-09-18T00:11:05.114Z,100051.88
2018-09-18T00:11:40.282Z,100044.97
2018-09-18T00:12:15.918Z,100045.53
2018-09-18T00:12:51.476Z,100046.84
2018-09-18T00:13:26.650Z,100047.11
2018-09-18T00:14:02.023Z,100042.91
2018-09-18T00:14:37.243Z,100049.58
2018-09-18T00:15:12.532Z,100045.76
2018-09-18T00:15:48.184Z,100048.31
2018-09-18T00:16:23.496Z,100048.78
2018-09-18T00:16:58.726Z,100051.50
2018-09-18T00:17:33.935Z,100047.67
2018-09-18T00:18:09.106Z,100047.34
2018-09-18T00:18:44.921Z,100045.66
2018-09-18T00:19:20.263Z,100040.53
2018-09-18T00:19:55.763Z,100042.67
2018-09-18T00:20:30.926Z,100042.44
2018-09-18T00:21:06.227Z,100045.66
2018-09-18T00:21:41.440Z,100046.38
2018-09-18T00:22:17.261Z,100048.52
2018-09-18T00:22:52.586Z,100045.66
2018-09-18T00:23:27.992Z,100048.98
2018-09-18T00:24:03.547Z,100040.80
2018-09-18T00:24:38.808Z,100041.84
2018-09-18T00:25:14.449Z,100045.76
2018-09-18T00:25:49.825Z,100044.55
2018-09-18T00:26:24.997Z,100043.81
2018-09-18T00:27:00.162Z,100038.58
2018-09-18T00:27:35.338Z,100044.65
2018-09-18T00:28:10.514Z,100042.88
2018-09-18T00:28:46.123Z,100039.32
2018-09-18T00:29:21.464Z,100036.80
2018-09-18T00:29:56.684Z,100037.17
2018-09-18T00:30:31.898Z,100037.17
2018-09-18T00:31:07.758Z,100036.90
2018-09-18T00:31:43.029Z,100029.75
2018-09-18T00:32:18.124Z,100033.73
2018-09-18T00:32:53.522Z,100029.75
2018-09-18T00:33:28.693Z,100029.75
2018-09-18T00:34:03.866Z,100024.99
2018-09-18T00:34:39.055Z,100032.06
2018-09-18T00:35:14.465Z,100029.45
2018-09-18T00:35:49.771Z,100030.75
2018-09-18T00:36:25.395Z,100033.84
2018-09-18T00:37:00.560Z,100031.35
2018-09-18T00:37:35.731Z,100026.59
2018-09-18T00:38:10.956Z,100034.06
2018-09-18T00:38:46.804Z,100032.76
2018-09-18T00:39:22.230Z,100029.88
2018-09-18T00:39:57.402Z,100033.13
2018-09-18T00:40:32.572Z,100030.39
2018-09-18T00:41:08.115Z,100028.61
2018-09-18T00:41:43.543Z,100029.55
2018-09-18T00:42:18.434Z,100031.69
2018-09-18T00:42:53.658Z,100029.45
2018-09-18T00:43:28.853Z,100027.90
2018-09-18T00:44:04.046Z,100030.39
2018-09-18T00:44:39.226Z,100030.28
2018-09-18T00:45:14.568Z,100034.68
2018-09-18T00:45:50.056Z,100034.68
2018-09-18T00:46:25.417Z,100026.13
2018-09-18T00:47:00.570Z,100031.83
2018-09-18T00:47:35.794Z,100028.37
2018-09-18T00:48:11.009Z,100030.14
2018-09-18T00:48:46.944Z,100031.08
2018-09-18T00:49:22.524Z,100026.32
2018-09-18T00:49:57.719Z,100029.50
2018-09-18T00:50:32.888Z,100026.64
2018-09-18T00:51:08.126Z,100021.52
2018-09-18T00:51:43.318Z,100024.13
2018-09-18T00:52:18.523Z,100026.38
2018-09-18T00:52:53.719Z,100028.42
2018-09-18T00:53:28.918Z,100023.48
2018-09-18T00:54:04.101Z,100026.20
2018-09-18T00:54:39.267Z,100024.75
2018-09-18T00:55:14.697Z,100026.42
2018-09-18T00:55:50.015Z,100025.02
2018-09-18T00:56:25.622Z,100020.17
2018-09-18T00:57:01.008Z,100022.08
2018-09-18T00:57:36.285Z,100021.11
2018-09-18T00:58:11.499Z,100022.92
2018-09-18T00:58:47.406Z,100021.34
2018-09-18T00:59:22.704Z,100025.27
2018-09-18T00:59:57.888Z,100015.47
2018-09-18T01:00:33.311Z,100022.59
2018-09-18T01:01:08.475Z,100017.19
2018-09-18T01:01:43.707Z,100016.45
2018-09-18T01:02:19.544Z,100022.98
2018-09-18T01:02:55.098Z,100019.28
2018-09-18T01:03:30.274Z,100020.31
2018-09-18T01:04:05.494Z,100017.42
2018-09-18T01:04:40.744Z,100021.57
2018-09-18T01:05:16.412Z,100022.03
2018-09-18T01:05:51.729Z,100021.25
2018-09-18T01:06:27.427Z,100027.78
2018-09-18T01:07:02.976Z,100023.49
2018-09-18T01:07:38.234Z,100023.87
2018-09-18T01:08:13.839Z,100021.94
2018-09-18T01:08:49.260Z,100027.27
2018-09-18T01:09:24.722Z,100014.66
2018-09-18T01:09:59.956Z,100023.81
2018-09-18T01:10:35.851Z,100020.83
2018-09-18T01:11:11.017Z,100009.75
2018-09-18T01:11:46.489Z,100015.60
2018-09-18T01:12:21.749Z,100010.37
2018-09-18T01:12:57.002Z,100016.44
2018-09-18T01:13:32.198Z,100015.23
2018-09-18T01:14:07.558Z,100007.23
2018-09-18T01:14:42.894Z,100009.95
2018-09-18T01:15:18.580Z,100015.36
2018-09-18T01:15:53.955Z,100010.73
2018-09-18T01:16:29.115Z,100013.53
2018-09-18T01:17:04.346Z,100009.52
2018-09-18T01:17:39.530Z,100006.06
2018-09-18T01:18:15.050Z,100011.76
2018-09-18T01:18:50.530Z,100008.87
2018-09-18T01:19:25.780Z,100008.62
2018-09-18T01:20:01.040Z,100002.75
2018-09-18T01:20:36.263Z,100001.53
2018-09-18T01:21:12.494Z,100002.00
2018-09-18T01:21:48.263Z,100004.98
2018-09-18T01:22:23.509Z,100007.13
2018-09-18T01:22:58.711Z,100004.98
2018-09-18T01:23:33.933Z,100008.53
2018-09-18T01:24:09.123Z,100008.53
2018-09-18T01:24:44.387Z,100007.13
2018-09-18T01:25:19.941Z,100008.06
2018-09-18T01:25:55.218Z,100014.31
2018-09-18T01:26:30.411Z,100014.03
2018-09-18T01:27:05.597Z,100008.12
2018-09-18T01:27:40.909Z,100007.50
2018-09-18T01:28:16.506Z,100011.42
2018-09-18T01:28:52.147Z,100004.89
2018-09-18T01:29:27.401Z,100008.44
2018-09-18T01:30:02.650Z,100005.83
2018-09-18T01:30:37.819Z,100007.50
2018-09-18T01:31:13.819Z,100008.53
2018-09-18T01:31:49.398Z,100013.29
2018-09-18T01:32:24.679Z,100003.77
2018-09-18T01:32:59.870Z,100008.62
2018-09-18T01:33:35.503Z,100008.28
2018-09-18T01:34:10.801Z,100003.68
2018-09-18T01:34:46.321Z,100004.24
2018-09-18T01:35:21.859Z,100008.44
2018-09-18T01:35:57.045Z,100002.75
2018-09-18T01:36:32.247Z,100002.69
2018-09-18T01:37:07.488Z,100003.72
2018-09-18T01:37:42.706Z,100009.97
2018-09-18T01:38:17.982Z,100002.26
2018-09-18T01:38:53.580Z,99998.52
2018-09-18T01:39:28.266Z,100003.66
2018-09-18T01:40:03.477Z,100007.11
2018-09-18T01:40:38.665Z,100005.52
2018-09-18T01:41:13.953Z,100000.23
2018-09-18T01:41:49.306Z,100001.63
2018-09-18T01:42:24.587Z,100005.55
2018-09-18T01:42:59.790Z,100003.00
2018-09-18T01:43:35.104Z,100006.55
2018-09-18T01:44:10.533Z,100008.31
2018-09-18T01:44:45.880Z,100007.47
2018-09-18T01:45:21.169Z,100002.84
2018-09-18T01:45:56.389Z,100001.62
2018-09-18T01:46:31.565Z,100001.72
2018-09-18T01:47:06.746Z,100008.06
2018-09-18T01:47:42.114Z,100001.07
2018-09-18T01:48:17.439Z,99999.39
2018-09-18T01:48:52.774Z,100000.41
2018-09-18T01:49:27.954Z,100004.62
2018-09-18T01:50:03.133Z,100002.00
2018-09-18T01:50:38.426Z,100001.62
2018-09-18T01:51:13.719Z,99998.27
2018-09-18T01:51:48.931Z,100000.51
2018-09-18T01:52:24.062Z,100004.70
2018-09-18T01:52:59.229Z,99996.44
2018-09-18T01:53:34.415Z,99999.61
2018-09-18T01:54:10.635Z,100003.52
2018-09-18T01:54:46.137Z,100002.21
2018-09-18T01:55:21.399Z,100008.19
2018-09-18T01:55:56.698Z,100001.00
2018-09-18T01:56:31.918Z,100003.36
2018-09-18T01:57:07.730Z,100004.83
2018-09-18T01:57:42.915Z,100000.16
2018-09-18T01:58:18.286Z,100001.00
2018-09-18T01:58:53.876Z,100002.21
2018-09-18T01:59:29.164Z,99998.39
2018-09-18T02:00:04.463Z,100002.50
2018-09-18T02:00:39.629Z,100003.52
2018-09-18T02:01:14.814Z,99999.61
2018-09-18T02:01:50.187Z,99999.61
2018-09-18T02:02:25.480Z,99994.69
2018-09-18T02:03:00.634Z,99996.92
2018-09-18T02:03:36.123Z,99997.30
2018-09-18T02:04:11.348Z,99991.02
2018-09-18T02:04:47.038Z,99997.55
2018-09-18T02:05:22.447Z,99992.55
2018-09-18T02:05:57.745Z,99999.91
2018-09-18T02:06:33.002Z,99993.01
2018-09-18T02:07:08.170Z,99997.77
2018-09-18T02:07:43.320Z,99987.05
2018-09-18T02:08:18.895Z,99991.05
2018-09-18T02:08:54.188Z,99992.35
2018-09-18T02:09:29.361Z,99994.97
2018-09-18T02:10:05.543Z,99989.95
2018-09-18T02:10:40.743Z,99992.57
2018-09-18T02:11:16.025Z,99989.58
2018-09-18T02:11:51.585Z,99988.66
2018-09-18T02:12:26.886Z,99988.99
2018-09-18T02:13:02.085Z,99996.64
2018-09-18T02:13:37.290Z,99991.98
2018-09-18T02:14:12.473Z,99992.10
2018-09-18T02:14:47.830Z,99992.20
2018-09-18T02:15:23.097Z,99990.89
2018-09-18T02:15:58.303Z,99986.97
2018-09-18T02:16:33.455Z,99989.67
2018-09-18T02:17:08.620Z,99991.45
2018-09-18T02:17:43.818Z,99989.30
2018-09-18T02:18:19.215Z,99993.22
2018-09-18T02:18:54.574Z,99990.70
2018-09-18T02:19:29.789Z,99990.32
2018-09-18T02:20:05.515Z,99992.94
2018-09-18T02:20:40.672Z,99992.27
2018-09-18T02:21:16.162Z,99985.58
2018-09-18T02:21:51.657Z,99990.42
2018-09-18T02:22:26.950Z,99987.53
2018-09-18T02:23:02.098Z,99986.78
2018-09-18T02:23:37.253Z,99981.94
2018-09-18T02:24:12.417Z,99987.71
2018-09-18T02:24:47.857Z,99976.73
2018-09-18T02:25:23.233Z,99981.95
2018-09-18T02:25:58.730Z,99981.78
2018-09-18T02:26:33.932Z,99984.02
2018-09-18T02:27:09.144Z,99985.22
2018-09-18T02:27:44.322Z,99986.63
2018-09-18T02:28:19.900Z,99984.27
2018-09-18T02:28:55.462Z,99979.63
2018-09-18T02:29:30.705Z,99977.58
2018-09-18T02:30:06.325Z,99984.85
2018-09-18T02:30:42.018Z,99983.98
2018-09-18T02:31:17.296Z,99976.93
2018-09-18T02:31:52.721Z,99985.69
2018-09-18T02:32:27.938Z,99976.55
2018-09-18T02:33:03.120Z,99976.44
2018-09-18T02:33:38.334Z,99981.19
2018-09-18T02:34:13.012Z,99980.63
2018-09-18T02:34:48.643Z,99979.33
2018-09-18T02:35:24.065Z,99981.94
2018-09-18T02:35:59.291Z,99977.00
2018-09-18T02:36:34.846Z,99977.93
2018-09-18T02:37:10.079Z,99978.39
2018-09-18T02:37:45.281Z,99979.80
2018-09-18T02:38:20.716Z,99975.23
2018-09-18T02:38:56.054Z,99981.38
2018-09-18T02:39:31.257Z,99981.94
2018-09-18T02:40:06.903Z,99985.10
2018-09-18T02:40:42.171Z,99982.23
2018-09-18T02:41:17.582Z,99982.42
2018-09-18T02:41:53.217Z,99981.20
2018-09-18T02:42:28.474Z,99989.97
2018-09-18T02:43:03.654Z,99979.81
2018-09-18T02:43:38.817Z,99986.06
2018-09-18T02:44:14.086Z,99984.10
2018-09-18T02:44:49.602Z,99990.72
2018-09-18T02:45:24.791Z,99993.79
2018-09-18T02:46:00.005Z,99980.75
2018-09-18T02:46:35.228Z,99985.10
2018-09-18T02:47:10.474Z,99984.39
2018-09-18T02:47:45.765Z,99990.62
2018-09-18T02:48:21.139Z,99997.61
2018-09-18T02:48:56.383Z,99986.05
2018-09-18T02:49:31.562Z,99995.30
2018-09-18T02:50:06.737Z,99992.33
2018-09-18T02:50:41.986Z,99992.41
2018-09-18T02:51:17.901Z,99999.41
2018-09-18T02:51:53.262Z,99994.73
2018-09-18T02:52:28.427Z,99997.81
2018-09-18T02:53:03.593Z,99997.19
2018-09-18T02:53:38.770Z,100002.56
2018-09-18T02:54:13.969Z,100000.05
2018-09-18T02:54:49.399Z,100006.39
2018-09-18T02:55:24.656Z,100005.45
2018-09-18T02:55:59.975Z,100001.92
2018-09-18T02:56:35.140Z,100004.16
2018-09-18T02:57:10.286Z,99997.81
2018-09-18T02:57:46.018Z,100006.30
2018-09-18T02:58:21.287Z,100004.44
2018-09-18T02:58:56.599Z,100007.77
2018-09-18T02:59:31.771Z,100009.07
2018-09-18T03:00:07.099Z,100008.73
2018-09-18T03:00:42.291Z,100001.70
2018-09-18T03:01:17.884Z,100003.30
2018-09-18T03:01:53.410Z,100005.44
2018-09-18T03:02:28.624Z,100007.13
2018-09-18T03:03:03.811Z,100004.98
2018-09-18T03:03:39.004Z,100004.33
2018-09-18T03:04:14.224Z,100007.03
2018-09-18T03:04:49.533Z,100005.73
2018-09-18T03:05:24.435Z,100007.50
2018-09-18T03:05:59.669Z,100009.27
2018-09-18T03:06:34.924Z,100008.71
2018-09-18T03:07:10.101Z,100001.81
2018-09-18T03:07:45.380Z,100006.82
2018-09-18T03:08:20.716Z,100009.89
2018-09-18T03:08:56.023Z,100007.88
2018-09-18T03:09:30.719Z,100005.91
2018-09-18T03:10:06.374Z,100006.19
2018-09-18T03:10:41.556Z,100005.44
2018-09-18T03:11:17.240Z,100007.30
2018-09-18T03:11:52.758Z,100006.93
2018-09-18T03:12:28.137Z,100001.92
2018-09-18T03:13:03.367Z,100004.81
2018-09-18T03:13:38.537Z,100003.59
2018-09-18T03:14:13.750Z,100008.82
2018-09-18T03:14:49.057Z,100006.30
2018-09-18T03:15:24.317Z,100002.94
2018-09-18T03:15:59.515Z,100006.10
2018-09-18T03:16:34.702Z,100001.47
2018-09-18T03:17:09.943Z,100009.39
2018-09-18T03:17:45.152Z,99999.88
2018-09-18T03:18:20.479Z,100001.36
2018-09-18T03:18:55.899Z,100001.95
2018-09-18T03:19:31.092Z,100002.67
2018-09-18T03:20:06.992Z,100007.89
2018-09-18T03:20:42.203Z,100001.66
2018-09-18T03:21:17.626Z,100007.26
2018-09-18T03:21:53.005Z,100002.87
2018-09-18T03:22:28.348Z,100005.95
2018-09-18T03:23:03.553Z,100003.80
2018-09-18T03:23:38.742Z,99999.80
2018-09-18T03:24:13.911Z,100001.74
2018-09-18T03:24:49.474Z,100003.62
2018-09-18T03:25:24.766Z,100002.19
2018-09-18T03:25:59.915Z,100004.45
2018-09-18T03:26:35.087Z,100005.02
2018-09-18T03:27:10.271Z,100007.06
2018-09-18T03:27:45.773Z,100007.41
2018-09-18T03:28:21.197Z,100007.53
2018-09-18T03:28:56.494Z,100007.16
2018-09-18T03:29:31.674Z,100004.92
2018-09-18T03:30:07.228Z,100009.17
2018-09-18T03:30:42.413Z,100010.02
2018-09-18T03:31:17.911Z,100003.24
2018-09-18T03:31:53.334Z,100005.77
2018-09-18T03:32:28.668Z,100006.85
2018-09-18T03:33:04.160Z,100008.62
2018-09-18T03:33:39.418Z,100002.66
2018-09-18T03:34:15.178Z,100000.17
2018-09-18T03:34:51.026Z,100004.55
2018-09-18T03:35:26.248Z,100006.56
2018-09-18T03:36:01.435Z,100002.41
2018-09-18T03:36:36.582Z,99993.91
2018-09-18T03:37:12.458Z,99995.89
2018-09-18T03:37:47.913Z,100001.95
2018-09-18T03:38:23.545Z,99997.28
2018-09-18T03:38:58.818Z,100002.68
2018-09-18T03:39:33.974Z,99999.14
2018-09-18T03:40:09.142Z,99993.01
2018-09-18T03:40:44.375Z,99991.99
2018-09-18T03:41:19.871Z,99997.30
2018-09-18T03:41:55.407Z,99997.01
2018-09-18T03:42:30.588Z,99990.70
2018-09-18T03:43:05.778Z,99995.99
2018-09-18T03:43:40.957Z,100003.25
2018-09-18T03:44:16.292Z,99992.91
2018-09-18T03:44:51.970Z,99997.39
2018-09-18T03:45:27.572Z,100000.29
2018-09-18T03:46:02.775Z,99993.66
2018-09-18T03:46:37.942Z,100000.17
2018-09-18T03:47:13.117Z,100000.09
2018-09-18T03:47:48.653Z,100000.27
2018-09-18T03:48:24.219Z,100004.94
2018-09-18T03:48:59.447Z,100001.95
2018-09-18T03:49:34.635Z,100009.22
2018-09-18T03:50:09.470Z,99986.69
2018-09-18T03:50:44.964Z,100009.59
2018-09-18T03:51:20.369Z,99997.58
2018-09-18T03:51:55.586Z,100002.16
2018-09-18T03:52:30.738Z,100001.77
2018-09-18T03:53:05.933Z,100009.22
2018-09-18T03:53:41.111Z,100005.86
2018-09-18T03:54:16.332Z,100003.25
2018-09-18T03:54:51.780Z,100001.57
2018-09-18T03:55:27.107Z,100003.55
2018-09-18T03:56:02.331Z,99999.72
2018-09-18T03:56:37.478Z,100005.86
2018-09-18T03:57:12.669Z,99998.50
2018-09-18T03:57:47.935Z,99995.17
2018-09-18T03:58:23.282Z,100008.09
2018-09-18T03:58:58.867Z,100002.53
2018-09-18T03:59:34.066Z,99997.03
2018-09-18T04:00:09.633Z,100000.10
2018-09-18T04:00:44.810Z,99990.89
2018-09-18T04:01:20.233Z,99995.81
2018-09-18T04:01:55.507Z,99984.45
2018-09-18T04:02:30.682Z,99989.20
2018-09-18T04:03:06.020Z,99988.08
2018-09-18T04:03:41.185Z,99989.50
2018-09-18T04:04:16.610Z,99990.68
2018-09-18T04:04:51.903Z,99989.75
2018-09-18T04:05:27.466Z,99987.81
2018-09-18T04:06:02.652Z,99989.38
2018-09-18T04:06:37.861Z,99993.66
2018-09-18T04:07:13.043Z,99988.45
2018-09-18T04:07:48.455Z,99995.43
2018-09-18T04:08:23.845Z,99987.35
2018-09-18T04:08:59.034Z,99995.64
2018-09-18T04:09:34.302Z,99989.84
2018-09-18T04:10:09.489Z,99993.48
2018-09-18T04:10:44.691Z,99982.39
2018-09-18T04:11:20.558Z,99986.05
2018-09-18T04:11:56.166Z,99993.95
2018-09-18T04:12:31.367Z,99990.41
2018-09-18T04:13:06.981Z,99993.48
2018-09-18T04:13:42.142Z,99989.20
2018-09-18T04:14:17.783Z,99993.66
2018-09-18T04:14:53.453Z,99993.11
2018-09-18T04:15:28.842Z,99995.80
2018-09-18T04:16:04.110Z,99991.98
2018-09-18T04:16:39.446Z,99992.81
2018-09-18T04:17:14.676Z,99991.52
2018-09-18T04:17:50.215Z,99997.56
2018-09-18T04:18:26.877Z,99992.09
2018-09-18T04:19:02.161Z,99992.94
2018-09-18T04:19:37.302Z,99996.73
2018-09-18T04:20:12.546Z,99996.17
2018-09-18T04:20:48.126Z,99990.21
2018-09-18T04:21:27.769Z,99992.47
2018-09-18T04:22:02.903Z,99994.59
2018-09-18T04:22:38.051Z,99994.96
2018-09-18T04:23:13.235Z,99989.75
2018-09-18T04:23:48.644Z,99994.13
2018-09-18T04:24:24.452Z,99991.26
2018-09-18T04:24:59.879Z,99994.70
2018-09-18T04:25:35.162Z,99990.80
2018-09-18T04:26:10.330Z,99991.98
2018-09-18T04:26:45.078Z,99993.02
2018-09-18T04:27:20.555Z,99994.33
2018-09-18T04:27:55.955Z,99995.17
2018-09-18T04:28:31.190Z,99992.65
2018-09-18T04:29:06.863Z,99989.29
2018-09-18T04:29:42.015Z,99988.73
2018-09-18T04:30:17.706Z,99990.42
2018-09-18T04:30:53.112Z,99987.44
2018-09-18T04:31:28.530Z,99988.19
2018-09-18T04:32:03.699Z,99990.21
2018-09-18T04:32:38.866Z,99986.67
2018-09-18T04:33:14.051Z,99985.28
2018-09-18T04:33:49.562Z,99988.81
2018-09-18T04:34:24.984Z,99981.55
2018-09-18T04:35:00.392Z,99987.26
2018-09-18T04:35:35.823Z,99980.24
2018-09-18T04:36:11.090Z,99985.11
2018-09-18T04:36:46.065Z,99983.69
2018-09-18T04:37:21.921Z,99992.55
2018-09-18T04:37:56.697Z,99989.86
2018-09-18T04:38:31.885Z,99987.97
2018-09-18T04:39:11.876Z,99990.95
2018-09-18T04:39:47.759Z,99997.85
2018-09-18T04:40:23.426Z,99990.58
2018-09-18T04:40:59.026Z,99996.26
2018-09-18T04:41:34.340Z,99998.41
2018-09-18T04:42:09.908Z,99996.84
2018-09-18T04:42:45.376Z,100000.75
2018-09-18T04:43:20.853Z,99994.78
2018-09-18T04:43:56.300Z,100001.30
2018-09-18T04:44:31.583Z,100004.38
2018-09-18T04:45:06.824Z,100003.54
2018-09-18T04:45:41.991Z,100004.09
2018-09-18T04:46:17.399Z,100006.44
2018-09-18T04:46:52.756Z,100003.08
2018-09-18T04:47:28.184Z,99999.63
2018-09-18T04:48:03.366Z,100005.69
2018-09-18T04:48:38.561Z,100001.48
2018-09-18T04:49:13.736Z,100005.69
2018-09-18T04:49:49.712Z,100005.77
2018-09-18T04:50:25.139Z,99999.72
2018-09-18T04:51:00.627Z,100007.37
2018-09-18T04:51:35.828Z,100003.08
2018-09-18T04:52:11.078Z,100007.37
2018-09-18T04:52:46.264Z,100007.08
2018-09-18T04:53:21.649Z,100012.67
2018-09-18T04:53:56.959Z,100004.94
2018-09-18T04:54:32.142Z,100005.40
2018-09-18T04:55:07.745Z,100007.55
2018-09-18T04:55:42.910Z,100008.84
2018-09-18T04:56:18.154Z,100010.91
2018-09-18T04:56:53.471Z,100012.29
2018-09-18T04:57:28.729Z,100005.98
2018-09-18T04:58:03.910Z,100007.16
2018-09-18T04:58:39.111Z,100009.68
2018-09-18T04:59:14.286Z,100014.44
2018-09-18T04:59:49.703Z,100011.53
2018-09-18T05:00:25.166Z,100012.02
2018-09-18T05:00:59.969Z,100006.32
2018-09-18T05:01:35.429Z,100016.02
2018-09-18T05:02:10.711Z,100013.42
2018-09-18T05:02:46.256Z,100013.22
2018-09-18T05:03:21.842Z,100007.91
2018-09-18T05:03:57.070Z,100002.90
2018-09-18T05:04:32.290Z,100012.75
2018-09-18T05:05:07.674Z,100012.58
2018-09-18T05:05:42.874Z,100012.38
2018-09-18T05:06:18.686Z,100020.66
2018-09-18T05:06:53.995Z,100016.66
2018-09-18T05:07:29.209Z,100020.58
2018-09-18T05:08:04.480Z,100015.45
2018-09-18T05:08:39.846Z,100015.73
2018-09-18T05:09:15.049Z,100018.34
2018-09-18T05:09:50.455Z,100022.43
2018-09-18T05:10:26.022Z,100019.73
2018-09-18T05:11:01.220Z,100015.45
2018-09-18T05:11:36.401Z,100014.35
2018-09-18T05:12:11.630Z,100018.35
2018-09-18T05:12:46.895Z,100014.06
2018-09-18T05:13:22.275Z,100020.49
2018-09-18T05:13:57.598Z,100014.81
2018-09-18T05:14:32.952Z,100017.97
2018-09-18T05:15:08.130Z,100017.68
2018-09-18T05:15:43.320Z,100015.28
2018-09-18T05:16:18.875Z,100016.87
2018-09-18T05:16:54.225Z,100020.95
2018-09-18T05:17:29.493Z,100021.50
2018-09-18T05:18:05.068Z,100018.14
2018-09-18T05:18:40.364Z,100017.89
2018-09-18T05:19:15.631Z,100017.42
2018-09-18T05:19:50.864Z,100020.95
2018-09-18T05:20:26.538Z,100021.88
2018-09-18T05:21:01.736Z,100018.81
2018-09-18T05:21:36.916Z,100018.81
2018-09-18T05:22:12.149Z,100022.55
2018-09-18T05:22:47.589Z,100023.48
2018-09-18T05:23:22.955Z,100021.80
2018-09-18T05:23:58.264Z,100020.41
2018-09-18T05:24:33.438Z,100017.59
2018-09-18T05:25:08.744Z,100023.19
2018-09-18T05:25:43.908Z,100026.26
2018-09-18T05:26:19.344Z,100031.09
2018-09-18T05:26:55.658Z,100026.17
2018-09-18T05:27:30.897Z,100029.79
2018-09-18T05:28:06.206Z,100032.52
2018-09-18T05:28:41.432Z,100033.36
2018-09-18T05:29:16.775Z,100033.36
2018-09-18T05:29:52.115Z,100031.75
2018-09-18T05:30:27.333Z,100027.30
2018-09-18T05:31:02.498Z,100028.22
2018-09-18T05:31:37.816Z,100026.08
2018-09-18T05:32:12.985Z,100027.94
2018-09-18T05:32:48.833Z,100029.61
2018-09-18T05:33:24.138Z,100024.14
2018-09-18T05:33:59.426Z,100026.00
2018-09-18T05:34:34.637Z,100022.54
2018-09-18T05:35:09.837Z,100023.17
2018-09-18T05:35:45.010Z,100026.55
2018-09-18T05:36:20.290Z,100031.84
2018-09-18T05:36:55.625Z,100023.65
2018-09-18T05:37:31.091Z,100028.31
2018-09-18T05:38:06.663Z,100026.36
2018-09-18T05:38:41.891Z,100025.80
2018-09-18T05:39:17.119Z,100016.56
2018-09-18T05:39:52.669Z,100024.02
2018-09-18T05:40:28.316Z,100025.33
2018-09-18T05:41:03.684Z,100025.30
2018-09-18T05:41:38.905Z,100027.57
2018-09-18T05:42:14.447Z,100036.80
2018-09-18T05:42:49.942Z,100034.45
2018-09-18T05:43:25.374Z,100040.13
2018-09-18T05:44:00.682Z,100038.02
2018-09-18T05:44:35.888Z,100042.27
2018-09-18T05:45:11.063Z,100041.81
2018-09-18T05:45:46.303Z,100051.87
2018-09-18T05:46:21.628Z,100049.72
2018-09-18T05:46:57.106Z,100044.25
2018-09-18T05:47:32.252Z,100045.55
2018-09-18T05:48:07.536Z,100045.55
2018-09-18T05:48:42.869Z,100044.05
2018-09-18T05:49:18.513Z,100040.72
2018-09-18T05:49:54.053Z,100041.91
2018-09-18T05:50:29.397Z,100046.66
2018-09-18T05:51:04.846Z,100048.42
2018-09-18T05:51:40.051Z,100048.25
2018-09-18T05:52:15.340Z,100062.67
2018-09-18T05:52:50.611Z,100056.36
2018-09-18T05:53:25.869Z,100055.87
2018-09-18T05:54:01.133Z,100059.23
2018-09-18T05:54:36.345Z,100059.98
2018-09-18T05:55:11.557Z,100057.67
2018-09-18T05:55:47.068Z,100060.36
2018-09-18T05:56:22.347Z,100059.52
2018-09-18T05:56:57.616Z,100053.09
2018-09-18T05:57:32.809Z,100059.89
2018-09-18T05:58:08.230Z,100054.69
2018-09-18T05:58:43.440Z,100051.87
2018-09-18T05:59:19.278Z,100058.22
2018-09-18T05:59:54.546Z,100050.02
2018-09-18T06:00:29.810Z,100048.70
2018-09-18T06:01:05.019Z,100046.47
2018-09-18T06:01:40.211Z,100047.78
2018-09-18T06:02:15.550Z,100050.94
2018-09-18T06:02:51.603Z,100057.55
2018-09-18T06:03:26.947Z,100057.29
2018-09-18T06:04:02.112Z,100046.86
2018-09-18T06:04:37.338Z,100050.86
2018-09-18T06:05:12.884Z,100051.49
2018-09-18T06:05:48.186Z,100046.48
2018-09-18T06:06:23.722Z,100048.71
2018-09-18T06:06:59.005Z,100048.25
2018-09-18T06:07:34.596Z,100047.32
2018-09-18T06:08:09.776Z,100048.42
2018-09-18T06:08:44.989Z,100042.56
2018-09-18T06:09:20.426Z,100042.86
2018-09-18T06:09:55.879Z,100047.03
2018-09-18T06:10:31.122Z,100053.45
2018-09-18T06:11:06.320Z,100052.99
2018-09-18T06:11:41.474Z,100051.14
2018-09-18T06:12:17.674Z,100048.91
2018-09-18T06:12:53.007Z,100049.72
2018-09-18T06:13:28.378Z,100051.15
2018-09-18T06:14:03.611Z,100051.70
2018-09-18T06:14:38.774Z,100050.56
2018-09-18T06:15:13.983Z,100048.89
2018-09-18T06:15:49.785Z,100049.64
2018-09-18T06:16:25.055Z,100050.86
2018-09-18T06:17:00.295Z,100052.08
2018-09-18T06:17:35.446Z,100050.09
2018-09-18T06:18:10.672Z,100055.05
2018-09-18T06:18:45.948Z,100048.33
2018-09-18T06:19:21.550Z,100049.09
2018-09-18T06:19:56.780Z,100052.91
2018-09-18T06:20:31.956Z,100050.94
2018-09-18T06:21:07.334Z,100054.30
2018-09-18T06:21:42.542Z,100051.05
2018-09-18T06:22:17.949Z,100043.59
2018-09-18T06:22:53.457Z,100045.07
2018-09-18T06:23:28.786Z,100048.61
2018-09-18T06:24:04.339Z,100051.88
2018-09-18T06:24:39.544Z,100054.03
2018-09-18T06:25:14.862Z,100054.00
2018-09-18T06:25:50.254Z,100053.73
2018-09-18T06:26:25.607Z,100055.42
2018-09-18T06:27:00.848Z,100048.98
2018-09-18T06:27:36.006Z,100055.58
2018-09-18T06:28:11.173Z,100054.56
2018-09-18T06:28:46.388Z,100058.84
2018-09-18T06:29:21.866Z,100058.48
2018-09-18T06:29:57.122Z,100047.48
2018-09-18T06:30:32.349Z,100060.27
2018-09-18T06:31:08.008Z,100063.34
2018-09-18T06:31:43.186Z,100060.34
2018-09-18T06:32:18.802Z,100058.94
2018-09-18T06:32:54.726Z,100058.09
2018-09-18T06:33:29.953Z,100059.11
2018-09-18T06:34:05.186Z,100064.17
2018-09-18T06:34:40.395Z,100068.63
2018-09-18T06:35:16.290Z,100064.34
2018-09-18T06:35:52.092Z,100072.66
2018-09-18T06:36:27.742Z,100071.98
2018-09-18T06:37:02.511Z,100075.72
2018-09-18T06:37:37.866Z,100069.29
2018-09-18T06:38:13.135Z,100073.58
2018-09-18T06:38:48.563Z,100072.45
2018-09-18T06:39:24.087Z,100073.20
2018-09-18T06:39:59.433Z,100075.03
2018-09-18T06:40:34.646Z,100078.48
2018-09-18T06:41:09.850Z,100080.17
2018-09-18T06:41:45.057Z,100080.55
2018-09-18T06:42:20.704Z,100080.25
2018-09-18T06:42:56.150Z,100081.47
2018-09-18T06:43:31.461Z,100082.22
2018-09-18T06:44:06.674Z,100090.22
2018-09-18T06:44:41.879Z,100084.45
2018-09-18T06:45:17.426Z,100086.77
2018-09-18T06:45:52.746Z,100090.22
2018-09-18T06:46:28.179Z,100088.28